Time,TemperatureF,DewpointF,PressureIn,WindDirection,WindDirectionDegrees,WindSpeedMPH,WindSpeedGustMPH,Humidity,HourlyPrecipIn,Conditions,Clouds,dailyrainin,SolarRadiationWatts/m^2,SoftwareType,DateUTC
2013-01-23 00:12:00,17.0,10.0,-100.00,SSW,212,4.0,7.0,74,-99.99,,,0.00,0.000000,,2013-01-23 07:12:00,
2013-01-23 00:33:00,13.0,7.0,-100.00,South,182,2.0,4.0,76,-99.99,,,0.00,0.000000,,2013-01-23 07:33:00,
2013-01-23 01:43:00,10.0,5.0,-100.00,East,95,0.0,2.0,80,-99.99,,,0.00,0.000000,,2013-01-23 08:43:00,
2013-01-23 01:53:00,10.0,5.0,-100.00,East,95,0.0,2.0,80,-99.99,,,0.00,0.000000,,2013-01-23 08:53:00,
2013-01-23 02:43:00,11.0,6.0,-100.00,ENE,75,0.0,2.0,80,-99.99,,,0.00,0.000000,,2013-01-23 09:43:00,
2013-01-23 02:53:00,11.0,6.0,-100.00,ENE,75,0.0,2.0,80,-99.99,,,0.00,0.000000,,2013-01-23 09:53:00,
2013-01-23 03:33:00,10.0,5.0,-100.00,East,100,3.0,4.0,80,-99.99,,,-99.99,0.000000,,2013-01-23 10:33:00,
2013-01-23 04:34:00,10.0,5.0,-100.00,ENE,72,0.0,3.0,80,-99.99,,,-99.99,0.000000,,2013-01-23 11:34:00,
2013-01-23 05:33:00,11.0,6.0,-100.00,South,176,0.0,2.0,80,-99.99,,,0.00,0.000000,,2013-01-23 12:33:00,
2013-01-23 06:33:00,10.0,6.0,-100.00,SSW,196,2.0,3.0,83,-99.99,,,0.00,0.000000,,2013-01-23 13:33:00,
2013-01-23 07:43:00,6.0,1.0,-100.00,South,182,0.0,3.0,80,-99.99,,,0.00,0.000000,,2013-01-23 14:43:00,
2013-01-23 07:53:00,6.0,1.0,-100.00,South,182,0.0,3.0,80,-99.99,,,0.00,0.000000,,2013-01-23 14:53:00,
2013-01-23 08:33:00,12.0,4.0,-100.00,East,96,0.0,3.0,71,-99.99,,,0.00,39.000000,,2013-01-23 15:33:00,
2013-01-23 09:43:00,20.0,10.0,-100.00,East,100,0.0,1.0,64,-99.99,,,0.00,156.000000,,2013-01-23 16:43:00,
2013-01-23 09:53:00,20.0,10.0,-100.00,East,100,0.0,1.0,64,-99.99,,,0.00,156.000000,,2013-01-23 16:53:00,
2013-01-23 10:43:00,31.0,15.0,-100.00,ESE,104,1.0,3.0,52,-99.99,,,0.00,266.000000,,2013-01-23 17:43:00,
2013-01-23 10:53:00,31.0,15.0,-100.00,ESE,104,1.0,3.0,52,-99.99,,,0.00,266.000000,,2013-01-23 17:53:00,
2013-01-23 11:03:00,31.0,15.0,-100.00,ESE,104,1.0,3.0,52,-99.99,,,0.00,266.000000,,2013-01-23 18:03:00,
2013-01-23 11:44:00,52.0,13.0,-100.00,SE,146,7.0,11.0,21,-99.99,,,0.00,430.000000,,2013-01-23 18:44:00,
2013-01-23 11:53:00,52.0,13.0,-100.00,SE,146,7.0,11.0,21,-99.99,,,0.00,430.000000,,2013-01-23 18:53:00,
2013-01-23 12:02:00,52.0,13.0,-100.00,SE,146,7.0,11.0,21,-99.99,,,0.00,430.000000,,2013-01-23 19:02:00,
2013-01-23 12:12:00,52.0,13.0,-100.00,SE,146,7.0,11.0,21,-99.99,,,0.00,430.000000,,2013-01-23 19:12:00,
2013-01-23 12:43:00,52.0,12.0,-100.00,SSE,156,7.0,13.0,20,0.00,,,0.00,431.000000,,2013-01-23 19:43:00,
2013-01-23 12:53:00,52.0,12.0,-100.00,SSE,156,7.0,13.0,20,0.00,,,0.00,431.000000,,2013-01-23 19:53:00,
2013-01-23 13:03:00,52.0,12.0,-100.00,SSE,156,7.0,13.0,20,0.00,,,0.00,431.000000,,2013-01-23 20:03:00,
2013-01-23 13:12:00,52.0,12.0,-100.00,SSE,156,7.0,13.0,20,0.00,,,0.00,431.000000,,2013-01-23 20:12:00,
2013-01-23 13:43:00,52.0,12.0,-100.00,South,172,9.0,14.0,20,0.00,,,0.00,369.000000,,2013-01-23 20:43:00,
2013-01-23 13:53:00,52.0,12.0,-100.00,South,172,9.0,14.0,20,0.00,,,0.00,369.000000,,2013-01-23 20:53:00,
2013-01-23 14:02:00,52.0,12.0,-100.00,South,172,9.0,14.0,20,0.00,,,0.00,369.000000,,2013-01-23 21:02:00,
2013-01-23 14:12:00,52.0,12.0,-100.00,South,172,9.0,14.0,20,0.00,,,0.00,369.000000,,2013-01-23 21:12:00,
2013-01-23 14:43:00,56.0,14.0,-100.00,South,174,8.0,18.0,19,0.00,,,0.00,640.000000,,2013-01-23 21:43:00,
2013-01-23 14:53:00,56.0,14.0,-100.00,South,174,8.0,18.0,19,0.00,,,0.00,640.000000,,2013-01-23 21:53:00,
2013-01-23 15:02:00,56.0,14.0,-100.00,South,174,8.0,18.0,19,0.00,,,0.00,640.000000,,2013-01-23 22:02:00,
2013-01-23 15:12:00,56.0,14.0,-100.00,South,174,8.0,18.0,19,0.00,,,0.00,640.000000,,2013-01-23 22:12:00,
2013-01-23 16:03:00,55.0,16.0,-100.00,SSE,162,8.0,14.0,21,0.00,,,0.00,392.000000,,2013-01-23 23:03:00,
2013-01-23 16:12:00,55.0,16.0,-100.00,SSE,162,8.0,14.0,21,0.00,,,0.00,392.000000,,2013-01-23 23:12:00,
2013-01-23 16:43:00,52.0,18.0,-100.00,South,174,6.0,16.0,26,0.00,,,0.00,224.000000,,2013-01-23 23:43:00,
2013-01-23 16:53:00,52.0,18.0,-100.00,South,174,6.0,16.0,26,0.00,,,0.00,224.000000,,2013-01-23 23:53:00,
2013-01-23 17:02:00,52.0,18.0,-100.00,South,174,6.0,16.0,26,0.00,,,0.00,224.000000,,2013-01-24 00:02:00,
2013-01-23 17:12:00,52.0,18.0,-100.00,South,174,6.0,16.0,26,0.00,,,0.00,224.000000,,2013-01-24 00:12:00,
2013-01-23 17:33:00,49.0,18.0,-100.00,SSE,165,5.0,11.0,29,0.00,,,0.00,106.000000,,2013-01-24 00:33:00,
2013-01-23 17:43:00,49.0,18.0,-100.00,SSE,165,5.0,11.0,29,0.00,,,0.00,106.000000,,2013-01-24 00:43:00,
2013-01-23 17:53:00,49.0,18.0,-100.00,SSE,165,5.0,11.0,29,0.00,,,0.00,106.000000,,2013-01-24 00:53:00,
2013-01-23 18:02:00,49.0,18.0,-100.00,SSE,165,5.0,11.0,29,0.00,,,0.00,106.000000,,2013-01-24 01:02:00,
2013-01-23 18:12:00,49.0,18.0,-100.00,SSE,165,5.0,11.0,29,0.00,,,0.00,106.000000,,2013-01-24 01:12:00,
2013-01-23 18:43:00,38.0,27.0,-100.00,WSW,251,0.0,7.0,63,0.00,,,0.00,8.000000,,2013-01-24 01:43:00,
2013-01-23 18:52:00,38.0,27.0,-100.00,WSW,251,0.0,7.0,63,0.00,,,0.00,8.000000,,2013-01-24 01:52:00,
2013-01-23 19:33:00,35.0,29.0,-100.00,North,10,0.0,2.0,77,-99.99,,,-99.99,0.000000,,2013-01-24 02:33:00,
2013-01-23 19:42:00,35.0,29.0,-100.00,North,10,0.0,2.0,77,-99.99,,,-99.99,0.000000,,2013-01-24 02:42:00,
2013-01-23 19:52:00,35.0,29.0,-100.00,North,10,0.0,2.0,77,-99.99,,,-99.99,0.000000,,2013-01-24 02:52:00,
2013-01-23 20:43:00,34.0,28.0,-100.00,NNE,20,0.0,4.0,78,-99.99,,,0.00,0.000000,,2013-01-24 03:43:00,
2013-01-23 20:53:00,34.0,28.0,-100.00,NNE,20,0.0,4.0,78,-99.99,,,0.00,0.000000,,2013-01-24 03:53:00,
2013-01-23 21:02:00,34.0,28.0,-100.00,NNE,20,0.0,4.0,78,-99.99,,,0.00,0.000000,,2013-01-24 04:02:00,
2013-01-23 21:43:00,32.0,27.0,-100.00,SW,216,0.0,2.0,81,0.00,,,0.00,0.000000,,2013-01-24 04:43:00,
2013-01-23 21:53:00,32.0,27.0,-100.00,SW,216,0.0,2.0,81,0.00,,,0.00,0.000000,,2013-01-24 04:53:00,
2013-01-23 22:03:00,32.0,27.0,-100.00,SW,216,0.0,2.0,81,0.00,,,0.00,0.000000,,2013-01-24 05:03:00,
2013-01-23 22:33:00,32.0,28.0,-100.00,WNW,285,0.0,2.0,86,-99.99,,,0.00,0.000000,,2013-01-24 05:33:00,
2013-01-23 22:43:00,32.0,28.0,-100.00,WNW,285,0.0,2.0,86,-99.99,,,0.00,0.000000,,2013-01-24 05:43:00,
2013-01-23 22:53:00,32.0,28.0,-100.00,WNW,285,0.0,2.0,86,-99.99,,,0.00,0.000000,,2013-01-24 05:53:00,
2013-01-23 23:02:00,32.0,28.0,-100.00,WNW,285,0.0,2.0,86,-99.99,,,0.00,0.000000,,2013-01-24 06:02:00,
2013-01-23 23:42:00,32.0,27.0,-100.00,East,80,1.0,3.0,81,-99.99,,,0.00,0.000000,,2013-01-24 06:42:00,
2013-01-23 23:52:00,32.0,27.0,-100.00,East,80,1.0,3.0,81,-99.99,,,0.00,0.000000,,2013-01-24 06:52:00,